Accueil
METAR-TAF:

METAR-TAF

Aéroports :

Bhopal, Inde

latitude: 23-17-15N, longitude: 77-20-15E, altitude: 524 m

Observation

Le bulletin a été fait il y a 36 minutes, à 04:30 UTC
Vent 2 kt de nord/nord-est
Température 19°C
Humidité 68%
Pression 1021 hPa
Visibilité: 2000 m
brume

METAR: VABP 080430Z 03002KT 2000 BR NSC 19/13 Q1021 NOSIG

Heure: 10:36 (05:06 UTC)

Prévision

Le bulletin a été fait il y a 3 heures et 6 minutes, à 02:00 UTC
Prévision valable du 08 à 03 UTC au 08 à 12 UTC
Vent 5 kt de nord/nord-est
Visibilité: 1500 m
brume
Evoluant progressivement
du 08 à 05 UTC au 08 à 07 UTC
Visibilité: 2500 m
brume sèche

TAF: VABP 080200Z 0803/0812 02005KT 1500 BR NSC BECMG 0805/0807 2500 HZ NSC

Observations et prévisions météorologiques de plus de 4000 aéroports (messages METAR et TAF).

Les stations disponibles sont représentées par des disques jaunes et rouges sur la carte.

Passer la souris dessus pour voir le nom de la station.

Cliquer dessus pour voir les observations et prévisions météorologiques.

Pour changer de carte: cliquez sur les boutons verts avec une croix noire pour zoomer, sur le bouton vert avec un tiret pour effectuer un zoom arrière, ou sur les flèches vertes pour les cartes adjacentes.


METAR-TAF: